sensor_id;sensor_type;location;lat;lon;timestamp;pressure;altitude;pressure_sealevel;temperature;humidity
34237;BME280;20501;45.956;13.632;2023-02-21T00:00:08;101385.06;;;11.54;57.47
34237;BME280;20501;45.956;13.632;2023-02-21T00:02:52;101384.22;;;9.19;68.62
34237;BME280;20501;45.956;13.632;2023-02-21T00:05:36;101384.56;;;10.35;64.09
34237;BME280;20501;45.956;13.632;2023-02-21T00:08:19;101382.50;;;11.41;60.56
34237;BME280;20501;45.956;13.632;2023-02-21T00:11:03;101376.53;;;11.70;59.80
34237;BME280;20501;45.956;13.632;2023-02-21T00:13:47;101382.44;;;10.28;62.53
34237;BME280;20501;45.956;13.632;2023-02-21T00:16:31;101370.75;;;11.08;61.76
34237;BME280;20501;45.956;13.632;2023-02-21T00:19:15;101375.06;;;11.66;59.87
34237;BME280;20501;45.956;13.632;2023-02-21T00:21:59;101369.13;;;11.72;59.34
34237;BME280;20501;45.956;13.632;2023-02-21T00:24:43;101371.63;;;11.64;59.71
34237;BME280;20501;45.956;13.632;2023-02-21T00:27:27;101374.97;;;12.00;58.40
34237;BME280;20501;45.956;13.632;2023-02-21T00:30:13;101372.72;;;12.05;58.43
34237;BME280;20501;45.956;13.632;2023-02-21T00:32:57;101372.09;;;10.21;60.30
34237;BME280;20501;45.956;13.632;2023-02-21T00:35:41;101375.22;;;8.68;65.11
34237;BME280;20501;45.956;13.632;2023-02-21T00:38:25;101370.78;;;7.88;72.03
34237;BME280;20501;45.956;13.632;2023-02-21T00:41:09;101367.59;;;10.33;64.40
34237;BME280;20501;45.956;13.632;2023-02-21T00:43:53;101364.88;;;10.80;62.33
34237;BME280;20501;45.956;13.632;2023-02-21T00:46:37;101349.13;;;10.97;58.08
34237;BME280;20501;45.956;13.632;2023-02-21T00:49:21;101363.88;;;11.04;61.92
34237;BME280;20501;45.956;13.632;2023-02-21T00:52:05;101371.50;;;11.66;59.58
34237;BME280;20501;45.956;13.632;2023-02-21T00:54:49;101372.72;;;11.94;58.46
34237;BME280;20501;45.956;13.632;2023-02-21T00:57:33;101369.53;;;11.01;61.48
34237;BME280;20501;45.956;13.632;2023-02-21T01:00:20;101379.56;;;11.77;59.24
34237;BME280;20501;45.956;13.632;2023-02-21T01:03:04;101377.66;;;9.47;61.36
34237;BME280;20501;45.956;13.632;2023-02-21T01:05:49;101377.72;;;10.54;63.15
34237;BME280;20501;45.956;13.632;2023-02-21T01:08:33;101379.34;;;7.25;68.68
34237;BME280;20501;45.956;13.632;2023-02-21T01:11:19;101379.97;;;9.89;65.41
34237;BME280;20501;45.956;13.632;2023-02-21T01:14:03;101375.09;;;7.90;68.17
34237;BME280;20501;45.956;13.632;2023-02-21T01:16:47;101369.78;;;8.16;70.37
34237;BME280;20501;45.956;13.632;2023-02-21T01:19:31;101365.50;;;8.40;69.52
34237;BME280;20501;45.956;13.632;2023-02-21T01:22:15;101361.88;;;7.60;70.92
34237;BME280;20501;45.956;13.632;2023-02-21T01:24:59;101361.78;;;8.02;70.61
34237;BME280;20501;45.956;13.632;2023-02-21T01:27:43;101363.97;;;7.69;71.87
34237;BME280;20501;45.956;13.632;2023-02-21T01:30:27;101362.31;;;7.67;73.05
34237;BME280;20501;45.956;13.632;2023-02-21T01:33:11;101358.72;;;8.86;70.15
34237;BME280;20501;45.956;13.632;2023-02-21T01:35:55;101357.09;;;8.18;69.42
34237;BME280;20501;45.956;13.632;2023-02-21T01:38:39;101354.66;;;10.73;63.17
34237;BME280;20501;45.956;13.632;2023-02-21T01:41:23;101352.47;;;11.56;60.28
34237;BME280;20501;45.956;13.632;2023-02-21T01:44:34;101348.22;;;11.74;59.61
34237;BME280;20501;45.956;13.632;2023-02-21T01:47:19;101338.81;;;11.90;59.20
34237;BME280;20501;45.956;13.632;2023-02-21T01:50:18;101333.13;;;11.93;58.79
34237;BME280;20501;45.956;13.632;2023-02-21T01:53:12;101347.28;;;11.97;58.82
34237;BME280;20501;45.956;13.632;2023-02-21T01:55:58;101335.69;;;11.95;58.74
34237;BME280;20501;45.956;13.632;2023-02-21T01:58:44;101332.72;;;11.44;59.86
34237;BME280;20501;45.956;13.632;2023-02-21T02:01:53;101326.63;;;11.19;61.01
34237;BME280;20501;45.956;13.632;2023-02-21T02:04:40;101331.63;;;11.24;60.71
34237;BME280;20501;45.956;13.632;2023-02-21T02:07:24;101332.84;;;11.75;59.56
34237;BME280;20501;45.956;13.632;2023-02-21T02:10:09;101332.19;;;9.78;63.17
34237;BME280;20501;45.956;13.632;2023-02-21T02:16:02;101321.47;;;10.01;62.17
34237;BME280;20501;45.956;13.632;2023-02-21T02:37:30;101309.03;;;11.57;59.50
34237;BME280;20501;45.956;13.632;2023-02-21T02:40:09;101311.78;;;9.63;67.00
34237;BME280;20501;45.956;13.632;2023-02-21T02:43:14;101305.94;;;11.29;61.61
34237;BME280;20501;45.956;13.632;2023-02-21T02:45:56;101307.25;;;11.68;60.14
34237;BME280;20501;45.956;13.632;2023-02-21T02:48:30;101292.41;;;11.62;58.67
34237;BME280;20501;45.956;13.632;2023-02-21T02:51:00;101294.72;;;11.67;60.31
34237;BME280;20501;45.956;13.632;2023-02-21T02:53:28;101295.16;;;11.51;60.94
34237;BME280;20501;45.956;13.632;2023-02-21T02:56:06;101292.69;;;11.80;59.70
34237;BME280;20501;45.956;13.632;2023-02-21T02:58:39;101291.25;;;11.97;59.32
34237;BME280;20501;45.956;13.632;2023-02-21T03:09:27;101272.75;;;11.27;58.99
34237;BME280;20501;45.956;13.632;2023-02-21T03:14:45;101273.69;;;9.79;66.50
34237;BME280;20501;45.956;13.632;2023-02-21T03:17:15;101268.03;;;11.41;61.14
34237;BME280;20501;45.956;13.632;2023-02-21T03:19:45;101261.09;;;11.48;61.22
34237;BME280;20501;45.956;13.632;2023-02-21T03:22:17;101256.31;;;11.94;59.71
34237;BME280;20501;45.956;13.632;2023-02-21T03:24:46;101260.00;;;11.07;62.61
34237;BME280;20501;45.956;13.632;2023-02-21T03:27:13;101258.09;;;11.84;60.04
34237;BME280;20501;45.956;13.632;2023-02-21T03:29:40;101256.59;;;11.91;59.56
34237;BME280;20501;45.956;13.632;2023-02-21T03:32:13;101266.09;;;12.06;59.19
34237;BME280;20501;45.956;13.632;2023-02-21T03:34:42;101269.28;;;10.81;63.07
34237;BME280;20501;45.956;13.632;2023-02-21T03:37:17;101267.59;;;8.41;69.04
34237;BME280;20501;45.956;13.632;2023-02-21T03:39:43;101264.84;;;10.80;63.77
34237;BME280;20501;45.956;13.632;2023-02-21T03:42:08;101258.84;;;9.73;64.14
34237;BME280;20501;45.956;13.632;2023-02-21T03:44:34;101258.38;;;9.90;66.96
34237;BME280;20501;45.956;13.632;2023-02-21T03:46:59;101246.91;;;10.91;63.37
34237;BME280;20501;45.956;13.632;2023-02-21T03:49:24;101238.03;;;11.65;60.60
34237;BME280;20501;45.956;13.632;2023-02-21T03:51:50;101234.19;;;10.47;61.30
34237;BME280;20501;45.956;13.632;2023-02-21T03:54:15;101245.91;;;9.54;64.98
34237;BME280;20501;45.956;13.632;2023-02-21T03:56:40;101232.69;;;10.43;63.63
34237;BME280;20501;45.956;13.632;2023-02-21T03:59:06;101243.25;;;10.46;64.12
34237;BME280;20501;45.956;13.632;2023-02-21T04:01:31;101242.50;;;10.78;63.22
34237;BME280;20501;45.956;13.632;2023-02-21T04:03:57;101244.78;;;11.06;61.07
34237;BME280;20501;45.956;13.632;2023-02-21T04:06:22;101240.72;;;11.44;61.71
34237;BME280;20501;45.956;13.632;2023-02-21T04:08:47;101241.59;;;11.87;60.05
34237;BME280;20501;45.956;13.632;2023-02-21T04:11:17;101243.50;;;11.54;60.72
34237;BME280;20501;45.956;13.632;2023-02-21T04:13:42;101243.22;;;11.78;60.28
34237;BME280;20501;45.956;13.632;2023-02-21T04:16:08;101242.00;;;11.82;60.19
34237;BME280;20501;45.956;13.632;2023-02-21T04:18:33;101246.34;;;11.95;59.77
34237;BME280;20501;45.956;13.632;2023-02-21T04:20:58;101244.69;;;11.61;59.92
34237;BME280;20501;45.956;13.632;2023-02-21T04:23:24;101239.00;;;11.64;60.73
34237;BME280;20501;45.956;13.632;2023-02-21T04:25:49;101241.00;;;11.83;60.03
34237;BME280;20501;45.956;13.632;2023-02-21T04:28:15;101237.63;;;11.70;60.68
34237;BME280;20501;45.956;13.632;2023-02-21T04:30:40;101240.00;;;11.84;60.15
34237;BME280;20501;45.956;13.632;2023-02-21T04:33:06;101225.06;;;12.01;59.69
34237;BME280;20501;45.956;13.632;2023-02-21T04:35:32;101231.63;;;12.08;59.24
34237;BME280;20501;45.956;13.632;2023-02-21T04:37:57;101223.19;;;12.02;59.50
34237;BME280;20501;45.956;13.632;2023-02-21T04:40:22;101221.75;;;11.98;59.56
34237;BME280;20501;45.956;13.632;2023-02-21T04:42:48;101222.13;;;11.93;59.44
34237;BME280;20501;45.956;13.632;2023-02-21T04:45:13;101220.13;;;9.38;67.75
34237;BME280;20501;45.956;13.632;2023-02-21T04:47:38;101225.06;;;10.14;66.68
34237;BME280;20501;45.956;13.632;2023-02-21T04:50:05;101217.69;;;11.17;62.97
34237;BME280;20501;45.956;13.632;2023-02-21T04:52:30;101217.31;;;11.22;62.51
34237;BME280;20501;45.956;13.632;2023-02-21T04:54:56;101211.09;;;11.64;61.35
34237;BME280;20501;45.956;13.632;2023-02-21T04:57:21;101215.38;;;11.12;61.61
34237;BME280;20501;45.956;13.632;2023-02-21T04:59:47;101218.28;;;8.90;69.42
34237;BME280;20501;45.956;13.632;2023-02-21T05:02:13;101204.81;;;10.65;65.17
34237;BME280;20501;45.956;13.632;2023-02-21T05:04:38;101198.00;;;10.94;63.14
34237;BME280;20501;45.956;13.632;2023-02-21T05:07:04;101193.47;;;11.48;61.78
34237;BME280;20501;45.956;13.632;2023-02-21T05:09:30;101194.03;;;11.94;60.40
34237;BME280;20501;45.956;13.632;2023-02-21T05:11:55;101189.47;;;10.43;65.17
34237;BME280;20501;45.956;13.632;2023-02-21T05:14:21;101201.38;;;8.38;70.79
34237;BME280;20501;45.956;13.632;2023-02-21T05:16:46;101201.84;;;7.67;76.45
34237;BME280;20501;45.956;13.632;2023-02-21T05:19:11;101205.06;;;8.11;72.62
34237;BME280;20501;45.956;13.632;2023-02-21T05:21:37;101203.38;;;8.73;71.26
34237;BME280;20501;45.956;13.632;2023-02-21T05:24:06;101206.66;;;10.42;66.50
34237;BME280;20501;45.956;13.632;2023-02-21T05:26:34;101203.53;;;8.83;71.56
34237;BME280;20501;45.956;13.632;2023-02-21T05:29:00;101209.66;;;7.44;75.37
34237;BME280;20501;45.956;13.632;2023-02-21T05:31:27;101208.03;;;8.45;73.14
34237;BME280;20501;45.956;13.632;2023-02-21T05:33:52;101204.41;;;9.90;68.40
34237;BME280;20501;45.956;13.632;2023-02-21T05:36:18;101208.06;;;11.24;63.44
34237;BME280;20501;45.956;13.632;2023-02-21T05:38:49;101204.59;;;11.01;63.07
34237;BME280;20501;45.956;13.632;2023-02-21T05:41:15;101207.13;;;11.14;63.54
34237;BME280;20501;45.956;13.632;2023-02-21T05:43:45;101203.75;;;11.75;61.48
34237;BME280;20501;45.956;13.632;2023-02-21T05:46:26;101208.78;;;9.69;66.58
34237;BME280;20501;45.956;13.632;2023-02-21T05:48:52;101202.69;;;10.80;63.82
34237;BME280;20501;45.956;13.632;2023-02-21T05:51:18;101195.94;;;10.75;63.25
34237;BME280;20501;45.956;13.632;2023-02-21T05:53:44;101201.16;;;10.99;64.04
34237;BME280;20501;45.956;13.632;2023-02-21T05:56:10;101199.75;;;9.81;66.29
34237;BME280;20501;45.956;13.632;2023-02-21T05:58:35;101204.19;;;9.11;69.12
34237;BME280;20501;45.956;13.632;2023-02-21T06:01:01;101208.31;;;10.89;64.22
34237;BME280;20501;45.956;13.632;2023-02-21T06:03:27;101207.13;;;11.46;62.43
34237;BME280;20501;45.956;13.632;2023-02-21T06:05:52;101205.97;;;11.82;61.23
34237;BME280;20501;45.956;13.632;2023-02-21T06:08:17;101212.88;;;11.96;60.80
34237;BME280;20501;45.956;13.632;2023-02-21T06:10:43;101219.50;;;12.03;60.42
34237;BME280;20501;45.956;13.632;2023-02-21T06:13:08;101221.91;;;9.73;66.94
34237;BME280;20501;45.956;13.632;2023-02-21T06:15:33;101225.41;;;10.89;64.49
34237;BME280;20501;45.956;13.632;2023-02-21T06:17:59;101228.78;;;11.46;62.40
34237;BME280;20501;45.956;13.632;2023-02-21T06:20:24;101229.41;;;11.39;61.68
34237;BME280;20501;45.956;13.632;2023-02-21T06:22:50;101242.34;;;8.80;69.68
34237;BME280;20501;45.956;13.632;2023-02-21T06:25:15;101242.28;;;9.78;68.65
34237;BME280;20501;45.956;13.632;2023-02-21T06:27:41;101244.75;;;11.17;63.91
34237;BME280;20501;45.956;13.632;2023-02-21T06:30:08;101251.50;;;11.55;62.30
34237;BME280;20501;45.956;13.632;2023-02-21T06:32:34;101251.28;;;11.89;61.00
34237;BME280;20501;45.956;13.632;2023-02-21T06:34:59;101252.69;;;11.84;61.27
34237;BME280;20501;45.956;13.632;2023-02-21T06:37:25;101244.47;;;10.42;65.63
34237;BME280;20501;45.956;13.632;2023-02-21T06:39:50;101264.47;;;11.29;63.39
34237;BME280;20501;45.956;13.632;2023-02-21T06:42:16;101260.59;;;11.54;62.31
34237;BME280;20501;45.956;13.632;2023-02-21T06:44:46;101260.16;;;11.70;61.50
34237;BME280;20501;45.956;13.632;2023-02-21T06:47:12;101254.00;;;11.89;60.99
34237;BME280;20501;45.956;13.632;2023-02-21T06:49:38;101249.53;;;12.00;60.60
34237;BME280;20501;45.956;13.632;2023-02-21T06:52:03;101267.94;;;9.23;69.07
34237;BME280;20501;45.956;13.632;2023-02-21T06:54:29;101277.97;;;8.97;70.84
34237;BME280;20501;45.956;13.632;2023-02-21T06:56:55;101264.34;;;10.18;67.52
34237;BME280;20501;45.956;13.632;2023-02-21T06:59:21;101270.59;;;10.19;67.37
34237;BME280;20501;45.956;13.632;2023-02-21T07:01:46;101277.59;;;8.77;72.04
34237;BME280;20501;45.956;13.632;2023-02-21T07:04:12;101281.38;;;8.10;74.67
34237;BME280;20501;45.956;13.632;2023-02-21T07:06:37;101289.69;;;8.20;74.90
34237;BME280;20501;45.956;13.632;2023-02-21T07:09:03;101282.69;;;9.31;71.96
34237;BME280;20501;45.956;13.632;2023-02-21T07:11:30;101271.25;;;10.79;66.16
34237;BME280;20501;45.956;13.632;2023-02-21T07:13:57;101278.16;;;11.27;64.03
34237;BME280;20501;45.956;13.632;2023-02-21T07:16:24;101286.84;;;9.48;70.38
34237;BME280;20501;45.956;13.632;2023-02-21T07:18:49;101293.78;;;9.39;71.01
34237;BME280;20501;45.956;13.632;2023-02-21T07:21:16;101285.09;;;10.29;67.10
34237;BME280;20501;45.956;13.632;2023-02-21T07:23:42;101286.78;;;9.36;70.43
34237;BME280;20501;45.956;13.632;2023-02-21T07:26:08;101289.28;;;9.02;72.46
34237;BME280;20501;45.956;13.632;2023-02-21T07:28:33;101287.09;;;8.70;73.89
34237;BME280;20501;45.956;13.632;2023-02-21T07:30:59;101293.44;;;9.43;70.25
34237;BME280;20501;45.956;13.632;2023-02-21T07:33:24;101282.88;;;10.23;67.70
34237;BME280;20501;45.956;13.632;2023-02-21T07:35:49;101290.16;;;9.51;70.57
34237;BME280;20501;45.956;13.632;2023-02-21T07:38:26;101291.72;;;11.05;65.48
34237;BME280;20501;45.956;13.632;2023-02-21T07:41:01;101295.63;;;9.38;69.97
34237;BME280;20501;45.956;13.632;2023-02-21T07:43:27;101290.16;;;9.51;70.01
34237;BME280;20501;45.956;13.632;2023-02-21T07:45:53;101287.84;;;10.75;66.59
34237;BME280;20501;45.956;13.632;2023-02-21T07:48:19;101295.28;;;11.49;63.61
34237;BME280;20501;45.956;13.632;2023-02-21T07:50:45;101288.72;;;10.52;66.43
34237;BME280;20501;45.956;13.632;2023-02-21T07:53:12;101298.25;;;9.27;71.10
34237;BME280;20501;45.956;13.632;2023-02-21T07:55:38;101303.16;;;10.29;68.07
34237;BME280;20501;45.956;13.632;2023-02-21T07:58:04;101303.31;;;11.39;64.21
34237;BME280;20501;45.956;13.632;2023-02-21T08:00:29;101296.91;;;10.96;64.84
34237;BME280;20501;45.956;13.632;2023-02-21T08:02:55;101301.22;;;10.76;65.53
34237;BME280;20501;45.956;13.632;2023-02-21T08:05:23;101308.72;;;10.03;68.73
34237;BME280;20501;45.956;13.632;2023-02-21T08:07:48;101303.94;;;10.06;69.07
34237;BME280;20501;45.956;13.632;2023-02-21T08:10:20;101299.84;;;10.48;67.27
34237;BME280;20501;45.956;13.632;2023-02-21T08:12:45;101306.09;;;9.30;70.50
34237;BME280;20501;45.956;13.632;2023-02-21T08:15:11;101309.38;;;9.22;71.11
34237;BME280;20501;45.956;13.632;2023-02-21T08:17:36;101307.97;;;10.93;65.84
34237;BME280;20501;45.956;13.632;2023-02-21T08:20:02;101299.47;;;11.53;63.80
34237;BME280;20501;45.956;13.632;2023-02-21T08:22:28;101294.09;;;11.96;62.21
34237;BME280;20501;45.956;13.632;2023-02-21T08:24:53;101296.03;;;12.05;61.56
34237;BME280;20501;45.956;13.632;2023-02-21T08:27:19;101297.09;;;12.14;61.52
34237;BME280;20501;45.956;13.632;2023-02-21T08:29:48;101295.38;;;12.13;61.44
34237;BME280;20501;45.956;13.632;2023-02-21T08:32:15;101297.41;;;12.20;61.14
34237;BME280;20501;45.956;13.632;2023-02-21T08:34:44;101300.91;;;12.11;61.29
34237;BME280;20501;45.956;13.632;2023-02-21T08:37:09;101304.09;;;12.16;61.28
34237;BME280;20501;45.956;13.632;2023-02-21T08:39:44;101304.75;;;12.08;61.60
34237;BME280;20501;45.956;13.632;2023-02-21T08:42:11;101297.97;;;11.28;64.55
34237;BME280;20501;45.956;13.632;2023-02-21T08:44:36;101294.47;;;12.02;61.95
34237;BME280;20501;45.956;13.632;2023-02-21T08:47:02;101298.44;;;12.19;61.42
34237;BME280;20501;45.956;13.632;2023-02-21T08:49:27;101302.72;;;12.22;61.11
34237;BME280;20501;45.956;13.632;2023-02-21T08:51:53;101298.88;;;10.94;65.73
34237;BME280;20501;45.956;13.632;2023-02-21T08:54:19;101303.06;;;10.64;67.15
34237;BME280;20501;45.956;13.632;2023-02-21T08:56:44;101306.41;;;11.23;65.23
34237;BME280;20501;45.956;13.632;2023-02-21T08:59:10;101312.59;;;10.34;68.46
34237;BME280;20501;45.956;13.632;2023-02-21T09:01:35;101307.31;;;11.24;64.93
34237;BME280;20501;45.956;13.632;2023-02-21T09:04:02;101308.50;;;9.70;70.75
34237;BME280;20501;45.956;13.632;2023-02-21T09:06:28;101312.94;;;9.71;70.92
34237;BME280;20501;45.956;13.632;2023-02-21T09:08:54;101305.75;;;10.98;66.37
34237;BME280;20501;45.956;13.632;2023-02-21T09:11:20;101303.56;;;11.69;63.63
34237;BME280;20501;45.956;13.632;2023-02-21T09:13:45;101296.19;;;11.71;63.57
34237;BME280;20501;45.956;13.632;2023-02-21T09:16:10;101295.19;;;10.73;67.22
34237;BME280;20501;45.956;13.632;2023-02-21T09:18:36;101302.00;;;11.66;63.97
34237;BME280;20501;45.956;13.632;2023-02-21T09:21:01;101307.28;;;12.00;62.47
34237;BME280;20501;45.956;13.632;2023-02-21T09:23:28;101312.00;;;10.31;67.82
34237;BME280;20501;45.956;13.632;2023-02-21T09:25:54;101303.66;;;10.91;66.57
34237;BME280;20501;45.956;13.632;2023-02-21T09:28:20;101304.50;;;11.03;65.88
34237;BME280;20501;45.956;13.632;2023-02-21T09:30:46;101300.94;;;11.13;66.04
34237;BME280;20501;45.956;13.632;2023-02-21T09:33:12;101291.94;;;11.57;64.24
34237;BME280;20501;45.956;13.632;2023-02-21T09:35:38;101291.91;;;11.89;63.06
34237;BME280;20501;45.956;13.632;2023-02-21T09:38:04;101292.19;;;11.54;64.31
34237;BME280;20501;45.956;13.632;2023-02-21T09:40:54;101284.16;;;10.53;67.54
34237;BME280;20501;45.956;13.632;2023-02-21T09:43:29;101291.13;;;11.77;63.42
34237;BME280;20501;45.956;13.632;2023-02-21T09:45:58;101285.81;;;12.08;62.41
34237;BME280;20501;45.956;13.632;2023-02-21T09:48:25;101282.56;;;12.15;62.00
34237;BME280;20501;45.956;13.632;2023-02-21T09:50:56;101283.28;;;11.96;62.66
34237;BME280;20501;45.956;13.632;2023-02-21T09:53:28;101283.72;;;11.80;63.32
34237;BME280;20501;45.956;13.632;2023-02-21T09:55:59;101292.00;;;11.99;62.79
34237;BME280;20501;45.956;13.632;2023-02-21T09:58:27;101283.16;;;12.18;62.04
34237;BME280;20501;45.956;13.632;2023-02-21T10:00:57;101285.78;;;12.30;61.53
34237;BME280;20501;45.956;13.632;2023-02-21T10:04:35;101294.47;;;11.70;64.08
34237;BME280;20501;45.956;13.632;2023-02-21T10:06:55;101282.75;;;11.48;64.56
34237;BME280;20501;45.956;13.632;2023-02-21T10:09:30;101285.69;;;11.45;64.79
34237;BME280;20501;45.956;13.632;2023-02-21T10:17:35;101283.34;;;12.05;62.94
34237;BME280;20501;45.956;13.632;2023-02-21T10:20:10;101280.25;;;12.10;62.46
34237;BME280;20501;45.956;13.632;2023-02-21T10:22:39;101281.97;;;11.25;65.54
34237;BME280;20501;45.956;13.632;2023-02-21T10:25:27;101278.84;;;11.41;65.38
34237;BME280;20501;45.956;13.632;2023-02-21T10:27:56;101281.97;;;11.25;66.31
34237;BME280;20501;45.956;13.632;2023-02-21T10:32:51;101275.63;;;12.01;63.15
34237;BME280;20501;45.956;13.632;2023-02-21T10:35:17;101269.06;;;11.82;64.00
34237;BME280;20501;45.956;13.632;2023-02-21T10:37:48;101268.63;;;11.98;63.41
34237;BME280;20501;45.956;13.632;2023-02-21T10:43:01;101271.44;;;12.39;62.02
34237;BME280;20501;45.956;13.632;2023-02-21T10:45:38;101268.66;;;12.29;62.20
34237;BME280;20501;45.956;13.632;2023-02-21T10:48:06;101266.66;;;11.03;68.40
34237;BME280;20501;45.956;13.632;2023-02-21T10:53:27;101271.84;;;10.72;68.68
34237;BME280;20501;45.956;13.632;2023-02-21T11:03:47;101247.31;;;11.72;65.29
34237;BME280;20501;45.956;13.632;2023-02-21T11:08:54;101244.94;;;11.79;65.33
34237;BME280;20501;45.956;13.632;2023-02-21T11:11:37;101245.97;;;11.99;63.93
34237;BME280;20501;45.956;13.632;2023-02-21T11:14:24;101244.88;;;12.33;62.71
34237;BME280;20501;45.956;13.632;2023-02-21T11:17:23;101239.09;;;12.16;63.26
34237;BME280;20501;45.956;13.632;2023-02-21T11:19:50;101233.94;;;11.92;64.88
34237;BME280;20501;45.956;13.632;2023-02-21T11:22:23;101234.50;;;12.07;63.63
34237;BME280;20501;45.956;13.632;2023-02-21T11:27:37;101226.41;;;11.96;64.55
34237;BME280;20501;45.956;13.632;2023-02-21T11:30:19;101220.88;;;12.18;63.27
34237;BME280;20501;45.956;13.632;2023-02-21T11:32:51;101222.66;;;11.12;67.54
34237;BME280;20501;45.956;13.632;2023-02-21T11:37:55;101219.69;;;11.90;64.70
34237;BME280;20501;45.956;13.632;2023-02-21T11:40:43;101212.72;;;11.97;64.32
34237;BME280;20501;45.956;13.632;2023-02-21T11:43:18;101218.22;;;11.11;67.75
34237;BME280;20501;45.956;13.632;2023-02-21T11:46:07;101210.91;;;11.76;65.23
34237;BME280;20501;45.956;13.632;2023-02-21T11:48:50;101205.84;;;10.86;68.03
34237;BME280;20501;45.956;13.632;2023-02-21T11:54:00;101206.41;;;12.08;63.98
34237;BME280;20501;45.956;13.632;2023-02-21T11:56:30;101196.34;;;12.20;63.16
34237;BME280;20501;45.956;13.632;2023-02-21T12:09:54;101179.22;;;11.67;64.46
34237;BME280;20501;45.956;13.632;2023-02-21T12:15:12;101177.88;;;12.04;63.34
34237;BME280;20501;45.956;13.632;2023-02-21T12:31:38;101152.78;;;12.02;61.94
34237;BME280;20501;45.956;13.632;2023-02-21T12:37:07;101148.66;;;12.07;63.25
34237;BME280;20501;45.956;13.632;2023-02-21T12:40:02;101150.38;;;12.49;62.10
34237;BME280;20501;45.956;13.632;2023-02-21T12:45:46;101139.56;;;12.49;61.95
34237;BME280;20501;45.956;13.632;2023-02-21T12:48:18;101138.22;;;11.72;64.24
34237;BME280;20501;45.956;13.632;2023-02-21T12:50:52;101130.94;;;11.72;64.56
34237;BME280;20501;45.956;13.632;2023-02-21T12:56:21;101123.69;;;12.35;62.46
34237;BME280;20501;45.956;13.632;2023-02-21T12:58:57;101123.41;;;12.38;62.57
34237;BME280;20501;45.956;13.632;2023-02-21T13:01:40;101120.66;;;12.18;62.82
34237;BME280;20501;45.956;13.632;2023-02-21T13:09:48;101110.16;;;12.45;62.26
34237;BME280;20501;45.956;13.632;2023-02-21T13:12:24;101111.22;;;11.39;65.75
34237;BME280;20501;45.956;13.632;2023-02-21T13:14:59;101108.78;;;11.57;65.50
34237;BME280;20501;45.956;13.632;2023-02-21T13:17:26;101109.94;;;11.34;66.15
34237;BME280;20501;45.956;13.632;2023-02-21T13:20:15;101101.22;;;12.03;63.78
34237;BME280;20501;45.956;13.632;2023-02-21T13:22:45;101101.59;;;12.39;62.58
34237;BME280;20501;45.956;13.632;2023-02-21T13:28:14;101090.19;;;12.46;62.47
34237;BME280;20501;45.956;13.632;2023-02-21T13:30:45;101081.91;;;11.97;64.23
34237;BME280;20501;45.956;13.632;2023-02-21T13:33:23;101084.66;;;11.44;65.88
34237;BME280;20501;45.956;13.632;2023-02-21T13:35:49;101075.66;;;11.65;65.43
34237;BME280;20501;45.956;13.632;2023-02-21T13:38:17;101076.31;;;12.19;63.48
34237;BME280;20501;45.956;13.632;2023-02-21T13:40:47;101072.34;;;12.43;62.42
34237;BME280;20501;45.956;13.632;2023-02-21T13:43:24;101067.22;;;12.50;62.21
34237;BME280;20501;45.956;13.632;2023-02-21T13:45:50;101074.38;;;12.61;61.76
34237;BME280;20501;45.956;13.632;2023-02-21T13:48:25;101067.78;;;12.53;62.24
34237;BME280;20501;45.956;13.632;2023-02-21T13:50:53;101062.22;;;12.45;62.36
34237;BME280;20501;45.956;13.632;2023-02-21T13:53:28;101069.09;;;12.59;61.89
34237;BME280;20501;45.956;13.632;2023-02-21T14:00:53;101058.09;;;12.51;62.37
34237;BME280;20501;45.956;13.632;2023-02-21T14:10:53;101053.66;;;12.30;63.32
34237;BME280;20501;45.956;13.632;2023-02-21T14:13:38;101051.84;;;12.50;62.56
34237;BME280;20501;45.956;13.632;2023-02-21T14:19:02;101051.97;;;12.39;62.88
34237;BME280;20501;45.956;13.632;2023-02-21T14:21:40;101051.91;;;12.10;64.45
34237;BME280;20501;45.956;13.632;2023-02-21T14:24:21;101049.13;;;12.60;62.31
34237;BME280;20501;45.956;13.632;2023-02-21T14:26:55;101051.53;;;11.31;66.18
34237;BME280;20501;45.956;13.632;2023-02-21T14:29:34;101043.63;;;12.11;63.89
34237;BME280;20501;45.956;13.632;2023-02-21T14:53:00;101044.84;;;12.58;62.75
34237;BME280;20501;45.956;13.632;2023-02-21T15:01:05;101043.22;;;12.06;64.58
34237;BME280;20501;45.956;13.632;2023-02-21T15:04:01;101037.81;;;12.26;63.71
34237;BME280;20501;45.956;13.632;2023-02-21T15:06:28;101037.31;;;11.60;66.29
34237;BME280;20501;45.956;13.632;2023-02-21T15:08:56;101033.88;;;11.27;67.41
34237;BME280;20501;45.956;13.632;2023-02-21T15:11:32;101036.91;;;11.34;67.19
34237;BME280;20501;45.956;13.632;2023-02-21T15:14:15;101031.50;;;11.65;66.20
34237;BME280;20501;45.956;13.632;2023-02-21T15:16:52;101029.25;;;12.20;64.28
34237;BME280;20501;45.956;13.632;2023-02-21T15:19:33;101027.00;;;12.26;63.79
34237;BME280;20501;45.956;13.632;2023-02-21T15:22:24;101022.16;;;12.59;62.65
34237;BME280;20501;45.956;13.632;2023-02-21T15:30:18;101018.56;;;11.78;65.74
34237;BME280;20501;45.956;13.632;2023-02-21T15:35:26;101023.75;;;11.91;65.12
34237;BME280;20501;45.956;13.632;2023-02-21T15:37:55;101018.47;;;12.40;63.57
34237;BME280;20501;45.956;13.632;2023-02-21T15:40:23;101017.72;;;12.48;63.35
34237;BME280;20501;45.956;13.632;2023-02-21T15:42:50;101016.47;;;12.52;63.41
34237;BME280;20501;45.956;13.632;2023-02-21T15:47:45;101010.66;;;11.96;65.79
34237;BME280;20501;45.956;13.632;2023-02-21T16:00:29;101008.59;;;12.78;62.03